Pleasantville, Pennsylvania
Current Conditions -  °F | °C
As of 10:15 AM on Wednesday 26 Nov 2014 (Local Time) from KFKL Reporting Station
Overcast Overcast  
Wind Chill: 23°   Ceiling: 6500
Heat Index: 30°   Visibility: 10mi
Dew Point: 23°   Wind: 8mph
Humidity: 75%   Direction: 70°ENE
Pressure: 30.08"   Gusts: NA
Location:  41.59°N, 79.58°W
Report Text: KFKL 261515Z AUTO 07007KT 10SM OVC065 M01/M05 A3008 RMK AO1
Loading
Personal Weather Stations






























Interactive Weather Map New forecast layout! Learn more

10-Day Weather Forecast

Advertisements
Track Severe Weather on mobile